Creek Data

    Home     View Charts     View Raw Data     Messages

ID Distance Battery Voltage Battery Current Internal Temp Internal Humidity External Temp Solar Input rssi snr Time Stamp Record
36571 0.0 3.96 0 49 40 48 5.1 -77 9 04/01/2025 09:30 AM 18427
36570 15.0 3.98 0 49 40 48 5.1 -78 7 04/01/2025 09:15 AM 18426
36569 15.0 3.97 0 48 40 48 5.1 -79 7 04/01/2025 09:00 AM 18425
36568 15.0 3.99 16 48 40 48 4.5 -82 8 04/01/2025 08:45 AM 18424
36567 15.0 3.97 0 48 40 48 5 -84 7 04/01/2025 08:30 AM 18423
36566 14.9 4.07 29 47 40 47 4.5 -82 8 04/01/2025 08:15 AM 18422
36565 15.0 4.00 0 47 40 47 4.5 -81 8 04/01/2025 08:00 AM 18421
36564 14.9 4.05 0 46 40 47 4.5 -82 7 04/01/2025 07:45 AM 18420
36563 15.0 4.03 9 46 40 46 4.5 -88 7 04/01/2025 07:30 AM 18419
36562 15.0 3.89 0 45 41 46 4.5 -83 7 04/01/2025 07:15 AM 18418
36561 15.0 3.83 -38 45 41 45 4.1 -81 8 04/01/2025 07:00 AM 18417
36560 15.0 3.97 -5 45 41 46 1.1 -82 7 04/01/2025 06:45 AM 18416
36559 15.0 3.85 -5 46 41 47 0 -82 8 04/01/2025 06:30 AM 18415
36558 0.0 3.85 -5 46 40 47 0.1 -83 8 04/01/2025 06:15 AM 18414
36557 0.0 3.97 -5 46 40 46 0 -83 7 04/01/2025 06:01 AM 18413
36556 0.0 3.85 -5 46 40 46 0 -84 8 04/01/2025 05:46 AM 18412
36555 0.0 3.86 -5 45 40 47 0 -78 7 04/01/2025 05:30 AM 18411
36554 0.0 3.97 -5 45 40 46 0 -77 8 04/01/2025 05:15 AM 18410
36553 15.0 3.86 -5 45 40 46 0.1 -77 7 04/01/2025 05:00 AM 18409
36552 0.0 3.86 -5 45 40 46 0 -77 7 04/01/2025 04:45 AM 18408
36551 0.0 3.98 -5 45 40 46 0 -77 8 04/01/2025 04:30 AM 18407
36550 0.0 3.86 -5 44 40 46 0 -77 8 04/01/2025 04:15 AM 18406
36549 0.0 3.86 -5 44 40 45 0 -76 8 04/01/2025 04:00 AM 18405
36548 0.0 3.98 -5 44 40 45 0 -78 8 04/01/2025 03:45 AM 18404
36547 0.0 3.87 -5 45 40 46 0 -77 8 04/01/2025 03:30 AM 18403